x

Tanner Bank - 121nm West Of San Diego, Ca (46047) Wave Buoy

7:50am - Fri 30th Jan 2015 All times are PST. -8 hours from GMT.

  • Sig Wave height 7.2ft
  • Swell Direction
  • Peak Period 17s
  • Average Period 8s
  • Wind
    18mph, 22mph gusts
  • Sea Temp 62°f
  • 空気 Temp 60°f
  • Sea Pressure 1014.1mb
  • Tanner Bank - 121nm West Of San Diego, Ca
  • Tanner Bank - 121nm West Of San Diego, Ca

More Historic Weather Station data

Upgrade to MSW Pro to gain access to the past 30 days of data for over 8000 Wavebouys and Weather Stations around the globe.

Join Pro

Comparision Forecast

View Surf forecast
   
Fri 01/30 7:50am 7ft 17s 8s 18 22 mph 1014.1mb 62f 60f
6:50am 5.5ft 17s 7s 16 20 mph 1014mb 62f 61f
5:50am 6ft 17s 7s 16 18 mph 1013.9mb 62f 61f
4:50am 6ft 17s 8s 16 18 mph 1014mb 62f 60f
3:50am 6ft 17s 8s 11 13 mph 1014.2mb 62f 61f
2:50am 6ft 17s 8s 11 13 mph 1014.6mb 62f 61f
1:50am 6.5ft 19s 8s 11 13 mph 1015.1mb 62f 61f
12:50am 6ft 17s 8s 9 11 mph 1015.6mb 62f 61f
Thu 01/29 11:50pm 6.5ft 19s 8s 7 9 mph 1016.1mb 62f 61f
10:50pm 5.5ft 19s 8s 4 7 mph 1016.4mb 62f 61f
9:50pm 5ft 19s 9s 7 9 mph 1016.7mb 62f 62f
8:50pm 5.5ft 19s 9s 7 9 mph 1016.7mb 62f 62f
7:50pm 5ft 19s 10s 7
mph
1016.4mb 62f 62f
6:50pm 5ft 19s 10s 7 9 mph 1016.1mb 62f 62f
5:50pm 5.5ft 19s 10s 7 9 mph 1016mb 62f 62f
4:50pm 4.5ft 13s 9s 7 9 mph 1015.7mb 62f 62f
3:50pm 4.5ft 13s 10s 2 4 mph 1015.8mb 62f 62f
2:50pm 4.5ft 19s 10s 4 7 mph 1015.5mb 62f 62f
1:50pm 4.5ft 13s  -  4 7 mph 1015.5mb 62f 62f
12:50pm 5ft 13s 10s 7 9 mph 1016.2mb 62f 62f
11:50am 5ft 19s 10s 4
mph
1017.2mb 62f 62f
9:50am 5ft 13s 9s 7 9 mph 1018.2mb 62f 62f
8:50am 5ft 13s 9s 7 9 mph 1017.8mb 62f 62f
7:50am 5ft 13s 10s 9 11 mph 1017.2mb 62f 62f
6:50am 5ft 11s 10s 7 9 mph 1017mb 62f 62f
5:50am 5ft 14s 10s 9 11 mph 1016.5mb 62f 62f
4:50am 5ft 14s 11s 7 9 mph 1016.6mb 62f 62f
3:50am 5ft 14s 11s 7 9 mph 1016.6mb 62f 62f
2:50am 5.5ft 14s 11s 7 9 mph 1016.9mb 62f 62f
1:50am 5ft 12s 10s 7 9 mph 1017.2mb 62f 62f
12:50am 5.5ft 13s 11s 7 9 mph 1017.8mb 62f 62f
Wed 01/28 11:50pm 5ft 13s 10s 7 9 mph 1018.3mb 62f 62f
10:50pm 5ft 14s 10s 7
mph
1018.9mb 62f 61f
9:50pm 5.5ft 12s 10s 7 9 mph 1018.7mb 62f 62f
8:50pm 5.5ft 14s 10s 9 11 mph 1018.7mb 62f 61f
7:50pm 6ft 14s 11s 7 9 mph 1019.1mb 62f 61f
6:50pm 6ft 14s 11s 9 11 mph 1018.9mb 62f 61f
5:50pm 6.5ft 14s 11s 9 11 mph 1018.7mb 62f 61f
4:50pm 5.5ft 14s 10s 11
mph
1018.8mb 62f 61f
3:50pm 6ft 14s 11s 9 11 mph 1018.7mb 62f 62f
2:50pm 5.5ft 14s 10s 11 13 mph 1018.2mb 62f 61f
1:50pm 5ft 14s 10s 9 11 mph 1018.9mb 62f 61f
12:50pm 5.5ft 14s 10s 9 11 mph 1019.4mb 62f 61f
11:50am 5.5ft 15s 11s 11 13 mph 1020.2mb 62f 61f
10:50am 5.5ft 14s 10s 9 11 mph 1020.9mb 62f 62f
9:50am 6ft 15s 10s 7 9 mph 1021mb 62f 62f
8:50am 6.5ft 14s 11s 9
mph
1020.6mb 62f 62f
7:50am 6ft 15s 10s 9 11 mph 1020.3mb 62f 62f
6:50am 5.5ft 14s 10s 7 9 mph 1020.7mb 62f 62f
5:50am 6.5ft 15s 10s 9 11 mph 1020.3mb 62f 62f
4:50am 7ft 14s 11s 11 13 mph 1020.1mb 62f 61f
3:50am 6ft 15s 11s 9 11 mph 1020.4mb 62f 62f
2:50am 6.5ft 14s 11s 11
mph
1020.8mb 62f 62f
1:50am 6.5ft 14s 12s 9 11 mph 1021.2mb 62f 62f
12:50am 6ft 15s 12s 7
mph
1021.8mb 62f 62f
Tue 01/27 11:50pm 5.5ft 14s 11s 4 7 mph 1022mb 62f 62f
10:50pm 6ft 14s 12s 4 7 mph 1021.8mb 62f 62f
9:50pm 6ft 13s 11s 7
mph
1021.5mb 62f 62f
8:50pm 5.5ft 14s 11s 7 9 mph 1021.6mb 62f 62f
7:50pm 6ft 14s 11s 7
mph
1021.8mb 62f 62f
6:50pm 6ft 14s 11s 9 11 mph 1021.4mb 62f 62f
5:50pm 6ft 15s 11s 7 9 mph 1021.5mb 63f 62f
4:50pm 5ft 15s 11s 4
mph
1021.2mb 64f 63f
3:50pm 6ft 13s 11s 2
mph
1021.3mb 64f 63f
2:50pm 6ft 14s 11s 2 4 mph 1021.5mb 64f 63f
1:50pm 6.5ft 13s 11s 4
mph
1021.7mb 63f 63f
12:50pm 6ft 15s 11s 4 7 mph 1021.9mb 63f 63f
11:50am 6ft 14s 10s 4
mph
1022.3mb 63f 63f
10:50am 6ft 15s 10s 7 9 mph 1022.5mb 62f 62f
9:50am 7ft 14s 11s 9 11 mph 1022.1mb 62f 62f
8:50am 6.5ft 15s 11s 9 11 mph 1021.6mb 62f 62f
7:50am 6.5ft 14s 11s 9 13 mph 1021.1mb 62f 63f
6:50am 7ft 15s 11s 9 13 mph 1020.9mb 62f 62f
5:50am 8ft 14s 12s 7 9 mph 1020mb 62f 62f
4:50am 6.5ft 15s 11s 9 11 mph 1019.5mb 62f 62f
3:50am 8ft 15s 12s 7 9 mph 1019.1mb 62f 62f
2:50am 6.5ft 13s 11s 9 11 mph 1019.2mb 62f 62f
1:50am 6ft 15s 10s 13 16 mph 1019mb 62f 62f
12:50am 6ft 15s 10s 11 13 mph 1018.8mb 62f 61f
Mon 01/26 11:50pm 7.5ft 15s 11s 13 16 mph 1018.6mb 62f 61f
10:50pm 8ft 15s 11s 11 16 mph 1018.3mb 62f 62f
9:50pm 6.5ft 16s 9s 7 9 mph 1017.8mb 62f 62f
8:50pm 7ft 15s 8s 2 4 mph 1017.3mb 62f 62f
7:50pm 8ft 16s 8s 4 7 mph 1017.1mb 62f 62f
6:50pm 8ft 13s 8s 13 16 mph 1016.5mb 62f 61f
5:50pm 7.5ft 16s 8s 18 20 mph 1015.9mb 62f 62f
4:50pm 6.5ft 15s 8s 13 18 mph 1015.9mb 62f 62f